Mount Pleasant, TX

1:27 PM CDT on June 02, 2015 (GMT -0500)
Mount Pleasant | | Change Station
CLOSE
Current Station
Airport
Location: Mount Pleasant,
Elevation: 364 ft
Nearby Weather Stations
Active Advisory: Flood Warning Active Notice: Public Information Statement

Elev 364 ft 33.10 °N, 94.96 °W | Updated 12 minutes ago

Clear
Clear
82 °F
Feels Like 83 °F
N
5
Wind Variable Wind from South

Today
High -- | Low -- °F
--% Chance of Precip.
Yesterday
High -- | Low -- °F
Precip. -- in
6:11 AM 8:24 PM
Full, 100% visible
Pressure 30.06 in
Visibility 10.0 miles
Clouds Scattered Clouds 4100 ft
Scattered Clouds 11000 ft
Heat Index 83 °F
Dew Point 63 °F
Humidity 53%
Rainfall 0.00 in
Snow Depth Not available.
UV 10 out of 12
Pollen 5.70 out of 12
Air Quality Not available.
Flu Activity Local Activity
METAR KOSA 021815Z AUTO 18004KT 10SM SCT041 SCT110 28/17 A3006 RMK AO1 T02750172

More Conditions Fewer Conditions

Pressure 30.06 in
Visibility 10.0 miles
Clouds Scattered Clouds 4100 ft
Scattered Clouds 11000 ft
Heat Index 83 °F
Dew Point 63 °F
Humidity 53%
Rainfall 0.00 in
Snow Depth Not available.
UV 10 out of 12
Pollen 5.70 out of 12
Air Quality Not available.
Flu Activity Local Activity
METAR KOSA 021815Z AUTO 18004KT 10SM SCT041 SCT110 28/17 A3006 RMK AO1 T02750172

More Conditions Fewer Conditions

10-Day Weather Forecast

×

Almanac

Astronomy

Jun. 02, 2015 Rise Set
Actual Time
Civil Twilight
Nautical Twilight
Astronomical Twilight
Moon
Length of Visible Light
Length of Day
Tomorrow will be .
, % of the Moon is Illuminated

Today's Extremes

State Highs State Lows

Community

WunderPhotos

Upload Photos

1,825,995 photos uploaded!

WunderBlogs® & News

Nearby

Air Quality

  Air Quality AQ Index Pollutant
Not available.

Snow Depth

Station Depth Elevation

Earthquake Activity

City Distance Mag. Time & Date
Minimum magnitude displayed is 2.5.

Coastal Water Temperatures

Place Temperature

Stations

Nearby Weather Stations

Station Location Temp. Windchill Dew Point Humidity Wind Precip. Elev Updated Type
                   
Flood Warning
Statement as of 10:32 AM CDT on June 02, 2015

The Flood Warning continues for
the Sulphur river below Talco.
* Until further notice... or until the warning is cancelled.
* At 10:15 am Tuesday the stage was 22.3 feet.
* Minor flooding is occurring and minor flooding is forecast.
* Flood stage is 20.0 feet.
* Forecast... the river will continue rising to near 22.4 feet by this
afternoon. Additional rises remain possible thereafter.


Lat... Lon 3338 9530 3341 9488 3331 9466 3326 9466 3331 9478